sensor_id;sensor_type;location;lat;lon;timestamp;temperature;humidity
21883;DHT22;11106;47.864;13.054;2023-05-29T08:58:54;23.90;86.80
21883;DHT22;11106;47.864;13.054;2023-05-29T09:03:55;23.70;82.80
21883;DHT22;11106;47.864;13.054;2023-05-29T09:08:56;23.50;82.30
21883;DHT22;11106;47.864;13.054;2023-05-29T09:13:58;23.30;83.40
21883;DHT22;11106;47.864;13.054;2023-05-29T09:19:06;23.20;81.80
21883;DHT22;11106;47.864;13.054;2023-05-29T09:24:07;23.40;83.80
21883;DHT22;11106;47.864;13.054;2023-05-29T09:29:08;23.20;74.00
21883;DHT22;11106;47.864;13.054;2023-05-29T09:34:09;23.40;77.70
21883;DHT22;11106;47.864;13.054;2023-05-29T09:39:10;23.40;74.20
21883;DHT22;11106;47.864;13.054;2023-05-29T09:44:14;23.50;75.20
21883;DHT22;11106;47.864;13.054;2023-05-29T09:49:18;23.20;75.90
21883;DHT22;11106;47.864;13.054;2023-05-29T09:54:22;23.50;77.60
21883;DHT22;11106;47.864;13.054;2023-05-29T09:59:24;23.80;75.00
21883;DHT22;11106;47.864;13.054;2023-05-29T10:04:25;23.70;76.30
21883;DHT22;11106;47.864;13.054;2023-05-29T10:09:27;23.70;76.30
21883;DHT22;11106;47.864;13.054;2023-05-29T10:14:29;23.30;74.60
21883;DHT22;11106;47.864;13.054;2023-05-29T10:19:32;23.40;75.10
21883;DHT22;11106;47.864;13.054;2023-05-29T10:24:37;23.60;77.10
21883;DHT22;11106;47.864;13.054;2023-05-29T10:35:14;23.30;77.60
21883;DHT22;11106;47.864;13.054;2023-05-29T10:40:25;23.20;75.40
21883;DHT22;11106;47.864;13.054;2023-05-29T10:50:48;23.20;74.70
21883;DHT22;11106;47.864;13.054;2023-05-29T10:55:51;23.20;75.00
21883;DHT22;11106;47.864;13.054;2023-05-29T11:00:53;22.80;73.20
21883;DHT22;11106;47.864;13.054;2023-05-29T11:10:57;23.10;75.20
21883;DHT22;11106;47.864;13.054;2023-05-29T11:16:12;23.20;76.10
21883;DHT22;11106;47.864;13.054;2023-05-29T11:26:45;23.30;71.00
21883;DHT22;11106;47.864;13.054;2023-05-29T11:31:46;23.30;72.50
21883;DHT22;11106;47.864;13.054;2023-05-29T11:36:50;23.50;74.20
21883;DHT22;11106;47.864;13.054;2023-05-29T11:41:51;23.40;70.40
21883;DHT22;11106;47.864;13.054;2023-05-29T11:47:00;23.20;68.80
21883;DHT22;11106;47.864;13.054;2023-05-29T11:52:13;23.10;67.50
21883;DHT22;11106;47.864;13.054;2023-05-29T11:57:20;22.90;72.10
21883;DHT22;11106;47.864;13.054;2023-05-29T12:02:22;23.20;62.50
21883;DHT22;11106;47.864;13.054;2023-05-29T12:07:25;23.30;67.40
21883;DHT22;11106;47.864;13.054;2023-05-29T12:32:43;23.40;63.60
21883;DHT22;11106;47.864;13.054;2023-05-29T12:37:59;23.80;64.80
21883;DHT22;11106;47.864;13.054;2023-05-29T12:48:03;23.30;62.60
21883;DHT22;11106;47.864;13.054;2023-05-29T12:53:15;23.40;68.10
21883;DHT22;11106;47.864;13.054;2023-05-29T12:58:16;23.40;63.60
21883;DHT22;11106;47.864;13.054;2023-05-29T13:03:17;23.40;69.50
21883;DHT22;11106;47.864;13.054;2023-05-29T13:08:17;23.50;60.00
21883;DHT22;11106;47.864;13.054;2023-05-29T13:13:18;23.30;60.60
21883;DHT22;11106;47.864;13.054;2023-05-29T13:18:19;23.40;62.50
21883;DHT22;11106;47.864;13.054;2023-05-29T13:23:20;23.40;61.70
21883;DHT22;11106;47.864;13.054;2023-05-29T13:48:27;23.30;63.20
21883;DHT22;11106;47.864;13.054;2023-05-29T13:53:28;23.30;62.60
21883;DHT22;11106;47.864;13.054;2023-05-29T13:58:29;23.60;65.50
21883;DHT22;11106;47.864;13.054;2023-05-29T14:03:29;23.50;59.10
21883;DHT22;11106;47.864;13.054;2023-05-29T14:08:32;23.10;61.40
21883;DHT22;11106;47.864;13.054;2023-05-29T14:13:32;23.20;62.00
21883;DHT22;11106;47.864;13.054;2023-05-29T14:18:33;23.30;60.30
21883;DHT22;11106;47.864;13.054;2023-05-29T14:23:34;23.40;63.00
21883;DHT22;11106;47.864;13.054;2023-05-29T14:28:35;23.30;60.80
21883;DHT22;11106;47.864;13.054;2023-05-29T14:33:35;23.30;59.90
21883;DHT22;11106;47.864;13.054;2023-05-29T14:38:37;23.30;64.30
21883;DHT22;11106;47.864;13.054;2023-05-29T14:43:41;23.50;66.10
21883;DHT22;11106;47.864;13.054;2023-05-29T14:48:42;23.50;65.70
21883;DHT22;11106;47.864;13.054;2023-05-29T14:53:46;23.40;63.60
21883;DHT22;11106;47.864;13.054;2023-05-29T14:58:47;23.50;66.90
21883;DHT22;11106;47.864;13.054;2023-05-29T15:03:48;23.40;64.80
21883;DHT22;11106;47.864;13.054;2023-05-29T15:08:49;23.30;64.80
21883;DHT22;11106;47.864;13.054;2023-05-29T15:13:51;23.20;66.60
21883;DHT22;11106;47.864;13.054;2023-05-29T15:23:52;23.10;58.50
21883;DHT22;11106;47.864;13.054;2023-05-29T15:43:57;23.20;57.40
21883;DHT22;11106;47.864;13.054;2023-05-29T15:48:58;23.10;61.40
21883;DHT22;11106;47.864;13.054;2023-05-29T15:53:59;23.00;60.80
21883;DHT22;11106;47.864;13.054;2023-05-29T15:59:00;23.10;62.30
21883;DHT22;11106;47.864;13.054;2023-05-29T16:04:00;23.10;60.10
21883;DHT22;11106;47.864;13.054;2023-05-29T16:09:02;23.20;61.90
21883;DHT22;11106;47.864;13.054;2023-05-29T16:14:03;23.20;59.30
21883;DHT22;11106;47.864;13.054;2023-05-29T16:19:04;23.10;62.40
21883;DHT22;11106;47.864;13.054;2023-05-29T16:24:06;23.20;62.80
21883;DHT22;11106;47.864;13.054;2023-05-29T16:29:07;23.20;63.60
21883;DHT22;11106;47.864;13.054;2023-05-29T16:34:07;23.10;64.20
21883;DHT22;11106;47.864;13.054;2023-05-29T16:39:08;23.10;63.90
21883;DHT22;11106;47.864;13.054;2023-05-29T16:44:09;23.10;61.10
21883;DHT22;11106;47.864;13.054;2023-05-29T16:49:09;23.10;61.90
21883;DHT22;11106;47.864;13.054;2023-05-29T16:54:10;23.10;65.60
21883;DHT22;11106;47.864;13.054;2023-05-29T16:59:11;23.10;64.70
21883;DHT22;11106;47.864;13.054;2023-05-29T17:04:12;23.00;64.50
21883;DHT22;11106;47.864;13.054;2023-05-29T17:09:13;22.90;64.40
21883;DHT22;11106;47.864;13.054;2023-05-29T17:14:13;22.80;65.90
21883;DHT22;11106;47.864;13.054;2023-05-29T17:19:14;22.80;69.20
21883;DHT22;11106;47.864;13.054;2023-05-29T17:24:15;22.70;69.00
21883;DHT22;11106;47.864;13.054;2023-05-29T17:29:15;22.50;68.50
21883;DHT22;11106;47.864;13.054;2023-05-29T17:34:17;22.40;71.70
21883;DHT22;11106;47.864;13.054;2023-05-29T17:39:18;22.40;72.20
21883;DHT22;11106;47.864;13.054;2023-05-29T17:44:18;22.30;74.70
21883;DHT22;11106;47.864;13.054;2023-05-29T17:49:19;22.20;76.00
21883;DHT22;11106;47.864;13.054;2023-05-29T17:54:20;22.00;76.70
21883;DHT22;11106;47.864;13.054;2023-05-29T17:59:23;21.90;76.50
21883;DHT22;11106;47.864;13.054;2023-05-29T18:04:24;21.80;78.90
21883;DHT22;11106;47.864;13.054;2023-05-29T18:09:25;21.60;76.80
21883;DHT22;11106;47.864;13.054;2023-05-29T18:14:26;21.50;79.00
21883;DHT22;11106;47.864;13.054;2023-05-29T18:19:27;21.40;80.60
21883;DHT22;11106;47.864;13.054;2023-05-29T18:24:28;21.30;82.00
21883;DHT22;11106;47.864;13.054;2023-05-29T18:29:29;21.10;83.50
21883;DHT22;11106;47.864;13.054;2023-05-29T18:34:32;21.00;83.70
21883;DHT22;11106;47.864;13.054;2023-05-29T18:39:33;20.80;84.70
21883;DHT22;11106;47.864;13.054;2023-05-29T18:44:34;20.60;85.50
21883;DHT22;11106;47.864;13.054;2023-05-29T18:49:34;20.40;87.10
21883;DHT22;11106;47.864;13.054;2023-05-29T18:54:35;20.20;88.80
21883;DHT22;11106;47.864;13.054;2023-05-29T18:59:36;20.10;90.00
21883;DHT22;11106;47.864;13.054;2023-05-29T19:04:36;19.80;90.50
21883;DHT22;11106;47.864;13.054;2023-05-29T19:09:37;19.60;90.90
21883;DHT22;11106;47.864;13.054;2023-05-29T19:14:38;19.40;91.40
21883;DHT22;11106;47.864;13.054;2023-05-29T20:19:57;19.20;91.60
21883;DHT22;11106;47.864;13.054;2023-05-29T20:24:58;16.80;97.60
21883;DHT22;11106;47.864;13.054;2023-05-29T20:29:59;16.70;97.80
21883;DHT22;11106;47.864;13.054;2023-05-29T20:34:59;16.60;96.80
21883;DHT22;11106;47.864;13.054;2023-05-29T20:40:00;16.40;96.60
21883;DHT22;11106;47.864;13.054;2023-05-29T20:45:03;16.30;96.50
21883;DHT22;11106;47.864;13.054;2023-05-29T20:50:06;16.20;96.80
21883;DHT22;11106;47.864;13.054;2023-05-29T20:55:07;16.10;96.80
21883;DHT22;11106;47.864;13.054;2023-05-29T21:00:08;16.00;97.20
21883;DHT22;11106;47.864;13.054;2023-05-29T21:45:22;15.80;96.90
21883;DHT22;11106;47.864;13.054;2023-05-29T22:05:26;14.90;99.90
21883;DHT22;11106;47.864;13.054;2023-05-29T22:10:27;14.50;99.90
21883;DHT22;11106;47.864;13.054;2023-05-29T22:15:29;14.40;99.90
21883;DHT22;11106;47.864;13.054;2023-05-29T22:20:30;14.30;99.90
21883;DHT22;11106;47.864;13.054;2023-05-29T22:25:31;14.20;99.90
21883;DHT22;11106;47.864;13.054;2023-05-29T22:30:32;14.20;99.90
21883;DHT22;11106;47.864;13.054;2023-05-29T22:35:33;14.20;99.90
21883;DHT22;11106;47.864;13.054;2023-05-29T22:40:34;14.10;99.90
